This is the latest recevied weather packets stored in our database for station/object DL2AKT-20. If no packets are shown the sender has not sent any weather packets the latest 1 day(s).
| Time | Temp. | Humidity | Pressure | Rain* | Wind** | Luminosity | Snow |
|---|---|---|---|---|---|---|---|
| 1778035849 | 16.67° C | 55% | 1008.6 hPa | - | - | - | - |
| 1778034949 | 16.67° C | 55% | 1008.7 hPa | - | - | - | - |
| 1778034048 | 17.22° C | 55% | 1008.8 hPa | - | - | - | - |
| 1778033148 | 17.22° C | 55% | 1008.9 hPa | - | - | - | - |
| 1778032247 | 17.22° C | 55% | 1008.8 hPa | - | - | - | - |
| 1778031347 | 17.22° C | 55% | 1009 hPa | - | - | - | - |
| 1778030447 | 16.67° C | 56% | 1009 hPa | - | - | - | - |
| 1778029547 | 16.67° C | 57% | 1008.9 hPa | - | - | - | - |
| 1778028570 | 17.22° C | 56% | 1008.9 hPa | - | - | - | - |
| 1778020468 | 17.78° C | 57% | 1009.5 hPa | - | - | - | - |
| 1778019567 | 18.33° C | 56% | 1009.4 hPa | - | - | - | - |
| 1778018667 | 18.89° C | 55% | 1009.4 hPa | - | - | - | - |
| 1778017767 | 18.33° C | 56% | 1009.4 hPa | - | - | - | - |
| 1778009666 | 19.44° C | 51% | 1010 hPa | - | - | - | - |
| 1778008766 | 19.44° C | 51% | 1009.7 hPa | - | - | - | - |
| 1778004267 | 19.44° C | 52% | 1009.5 hPa | - | - | - | - |
| 1778003367 | 19.44° C | 53% | 1009.6 hPa | - | - | - | - |
| 1778002467 | 20.56° C | 50% | 1009.7 hPa | - | - | - | - |
| 1778001567 | 20.56° C | 49% | 1009.9 hPa | - | - | - | - |
| 1778000667 | 21.11° C | 49% | 1010 hPa | - | - | - | - |
| 1777999767 | 22.22° C | 47% | 1010.2 hPa | - | - | - | - |
* Rain since midnight (hover to see other rain measurements)
** Current wind speed in m/s (hover to see current wind gust speed)